KLPC

Details ICAO KLPC (LPC)
Name LOMPOC
Region United States
Timezone America/Los_Angeles (UTC-7.0)
Plans Departing 16
Arriving 6
Stats Elevation 88 ft / 27 m (AMSL)
Location 34.665619° -120.467503°
Runways 1
Magnetic Variation 12.491° E
Sunrise 2018-05-25 12:54:12 UTC / 2018-05-25 05:54:12 Local
Sunset 2018-05-26 03:06:21 UTC / 2018-05-25 20:06:21 Local
Advertisement - Login to hide

Runways

ID Width Length Bearing (true) Bearing (mag) Surface Threshold Offset Overrun Length
07 100 ft / 30 m 4,591 ft / 1,399 m 90.96° 78.47° Asphalt 0 ft / 0 m 0 ft / 0 m
25 100 ft / 30 m 4,591 ft / 1,399 m 270.97° 258.48° Asphalt 395 ft / 120 m 0 ft / 0 m

Map

Weather


0- 5 10 15 20 25 30 35+ Temperature / ° C

Clouds and Precipitation
Forecast for 2018-05-25 12:00 UTC. Updated 20 minutes ago

Ground ~20,000 ft ~40,000 ft Winds

METAR

KLPC 251128Z AUTO 11003KT 10SM SCT022 OVC050 10/08 A3011 RMK AO2

TAF

Not found

Frequencies

Recorded 133.87 MHz AWOS 3
Approach 124.15 MHz SANTA BARB APP/DEP
Unicom 122.70 MHz CTAF/UNICOM
Warning: Do not use this data for real-world aviation or navigation. No guarantee of current accuracy is given.